Time;durP1;ratioP1;P1;durP2;ratioP2;P2;SDS_P1;SDS_P2;PMS_P1;PMS_P2;Temp;Humidity;BMP_temperature;BMP_pressure;BME280_temperature;BME280_humidity;BME280_pressure;Samples;Min_cycle;Max_cycle;Signal;HPM_P1;HPM_P2
2022/10/16 00:00:44;;;;;;;3.95;2.40;;;;;;;16.18;45.07;102511.55;1707684;82;21007;-51
2022/10/16 00:03:11;;;;;;;4.90;2.75;;;;;;;16.16;45.24;102517.28;1705535;82;20999;-52
2022/10/16 00:05:40;;;;;;;5.00;2.67;;;;;;;16.14;45.57;102509.88;1705248;82;21124;-53
2022/10/16 00:08:09;;;;;;;5.60;2.95;;;;;;;16.13;45.81;102514.72;1705757;82;21041;-55
2022/10/16 00:10:37;;;;;;;4.70;2.83;;;;;;;16.12;45.90;102512.97;1705639;82;21018;-51
2022/10/16 00:13:04;;;;;;;4.35;2.55;;;;;;;16.11;46.14;102510.38;1706204;82;21050;-56
2022/10/16 00:15:38;;;;;;;4.53;2.60;;;;;;;16.09;46.58;102515.64;1706341;82;21097;-50
2022/10/16 00:18:07;;;;;;;4.67;2.90;;;;;;;16.06;46.79;102517.02;1711174;82;21054;-51
2022/10/16 00:20:36;;;;;;;6.65;3.87;;;;;;;16.03;47.20;102511.80;1705035;82;21054;-54
2022/10/16 00:23:04;;;;;;;4.55;2.60;;;;;;;16.01;47.37;102516.21;1705237;83;21596;-50
2022/10/16 00:25:32;;;;;;;4.55;2.83;;;;;;;15.99;47.64;102515.37;1701225;83;21034;-51
2022/10/16 00:28:00;;;;;;;5.87;3.33;;;;;;;15.99;47.69;102520.63;1709149;82;21053;-51
2022/10/16 00:30:27;;;;;;;5.62;2.67;;;;;;;15.98;47.69;102517.59;1705171;82;20987;-50
2022/10/16 00:32:55;;;;;;;6.70;3.12;;;;;;;15.98;47.75;102520.22;1703263;82;21043;-50
2022/10/16 00:35:22;;;;;;;4.50;2.83;;;;;;;15.98;47.80;102516.28;1697080;82;21030;-51
2022/10/16 00:37:48;;;;;;;6.33;3.20;;;;;;;15.98;47.78;102514.97;1706391;82;21035;-57
2022/10/16 00:40:15;;;;;;;4.97;3.10;;;;;;;15.96;47.79;102515.44;1706259;82;21026;-52
2022/10/16 00:42:42;;;;;;;4.53;2.83;;;;;;;15.94;47.79;102513.28;1704299;82;21097;-51
2022/10/16 00:45:09;;;;;;;4.72;2.87;;;;;;;15.91;47.92;102512.47;1704316;82;21023;-51
2022/10/16 00:47:47;;;;;;;6.62;3.10;;;;;;;15.84;48.17;102516.95;1702211;83;21007;-57
2022/10/16 00:50:31;;;;;;;4.50;2.95;;;;;;;15.78;48.35;102514.42;1706156;83;21019;-51
2022/10/16 00:52:58;;;;;;;4.53;2.70;;;;;;;15.76;48.67;102525.39;1702451;83;21030;-51
2022/10/16 00:55:25;;;;;;;3.55;2.75;;;;;;;15.74;48.79;102521.05;1707262;82;21058;-52
2022/10/16 00:57:52;;;;;;;6.65;3.67;;;;;;;15.74;48.84;102525.86;1705440;82;21574;-55
2022/10/16 01:00:22;;;;;;;5.50;3.30;;;;;;;15.71;48.87;102524.58;1703261;82;20999;-51
2022/10/16 01:03:00;;;;;;;6.42;3.35;;;;;;;15.67;49.15;102524.20;1703840;82;21042;-56
2022/10/16 01:05:37;;;;;;;5.78;3.67;;;;;;;15.69;49.17;102527.67;1703174;82;21648;-56
2022/10/16 01:08:19;;;;;;;5.87;3.70;;;;;;;15.70;49.39;102520.23;1694247;83;21059;-51
2022/10/16 01:10:58;;;;;;;5.53;3.08;;;;;;;15.68;49.47;102523.33;1693888;83;21025;-52
2022/10/16 01:13:30;;;;;;;4.70;3.17;;;;;;;15.66;49.58;102519.83;1587923;89;21080;-52
2022/10/16 01:16:12;;;;;;;5.17;3.20;;;;;;;15.64;49.69;102520.30;1588176;89;21116;-52
2022/10/16 01:18:52;;;;;;;5.53;3.40;;;;;;;15.63;49.74;102526.45;1576892;89;21610;-51
2022/10/16 01:21:35;;;;;;;4.53;2.90;;;;;;;15.62;49.88;102522.08;1568643;91;21569;-49
2022/10/16 01:24:32;;;;;;;6.92;3.50;;;;;;;15.62;49.98;102531.26;1552487;91;21086;-49
2022/10/16 01:27:24;;;;;;;7.70;3.92;;;;;;;15.63;49.80;102538.25;1565468;91;21580;-49
2022/10/16 01:29:59;;;;;;;4.15;3.33;;;;;;;15.65;49.66;102533.85;1566315;90;21168;-53
2022/10/16 01:32:52;;;;;;;6.17;3.72;;;;;;;15.66;49.56;102532.95;1575383;90;21084;-51
2022/10/16 01:35:28;;;;;;;7.47;3.33;;;;;;;15.62;49.67;102531.26;1580973;90;21111;-52
2022/10/16 01:38:07;;;;;;;4.62;3.67;;;;;;;15.61;49.74;102531.29;1546039;92;21110;-50
2022/10/16 01:40:36;;;;;;;8.60;3.77;;;;;;;15.57;49.58;102533.09;1547088;92;21644;-51
2022/10/16 01:43:06;;;;;;;6.90;3.33;;;;;;;15.52;49.73;102541.94;1546572;92;21082;-50
2022/10/16 01:45:34;;;;;;;5.72;3.62;;;;;;;15.48;50.14;102544.58;1511312;94;21101;-51
2022/10/16 01:48:03;;;;;;;6.35;3.52;;;;;;;15.43;50.35;102540.30;1512264;94;21076;-51
2022/10/16 01:50:33;;;;;;;7.53;3.70;;;;;;;15.37;50.49;102541.66;1512211;94;21620;-52
2022/10/16 01:53:01;;;;;;;9.93;3.62;;;;;;;15.31;50.55;102541.74;1512809;94;21129;-51
2022/10/16 01:55:37;;;;;;;8.43;3.83;;;;;;;15.27;50.46;102549.23;1512012;94;21184;-54
2022/10/16 01:58:07;;;;;;;10.48;4.90;;;;;;;15.23;50.44;102551.43;1512344;94;21134;-51
2022/10/16 02:00:37;;;;;;;5.70;3.40;;;;;;;15.19;50.47;102542.74;1520396;93;21126;-53
2022/10/16 02:03:04;;;;;;;5.22;3.92;;;;;;;15.16;50.70;102546.73;1530353;93;21079;-53
2022/10/16 02:05:46;;;;;;;5.42;3.87;;;;;;;15.17;50.85;102551.51;1498136;94;21097;-51
2022/10/16 02:08:13;;;;;;;6.90;3.58;;;;;;;15.14;50.97;102547.63;1492153;95;21594;-52
2022/10/16 02:10:39;;;;;;;4.45;3.72;;;;;;;15.11;51.10;102549.84;1512509;93;21152;-52
2022/10/16 02:13:35;;;;;;;7.03;4.05;;;;;;;15.10;51.27;102556.42;1515967;93;21173;-52
2022/10/16 02:16:05;;;;;;;7.25;3.92;;;;;;;15.08;51.39;102550.33;1563593;90;21100;-55
2022/10/16 02:18:33;;;;;;;5.47;3.80;;;;;;;15.06;51.57;102556.03;1552418;91;21105;-55
2022/10/16 02:21:15;;;;;;;5.05;3.77;;;;;;;15.04;51.85;102553.88;1543709;91;21062;-52
2022/10/16 02:24:17;;;;;;;4.90;3.80;;;;;;;15.03;51.70;102557.36;1543713;91;21137;-52
2022/10/16 02:27:09;;;;;;;6.17;4.03;;;;;;;15.01;51.59;102561.76;1543859;93;21082;-54
2022/10/16 02:29:40;;;;;;;8.05;4.08;;;;;;;15.01;51.67;102563.07;1539429;91;21084;-51
2022/10/16 02:32:07;;;;;;;7.67;4.30;;;;;;;14.98;51.51;102576.23;1574972;89;21056;-51
2022/10/16 02:34:34;;;;;;;5.45;4.10;;;;;;;14.92;51.40;102576.30;1578380;89;21061;-54
2022/10/16 02:37:01;;;;;;;7.50;4.25;;;;;;;14.90;51.38;102578.06;1577825;89;21071;-52
2022/10/16 02:39:28;;;;;;;7.20;4.47;;;;;;;14.85;51.26;102578.55;1575811;90;21069;-53
2022/10/16 02:41:55;;;;;;;8.75;4.80;;;;;;;14.80;51.18;102578.58;1577568;90;21118;-52
2022/10/16 02:44:22;;;;;;;6.67;4.50;;;;;;;14.75;51.21;102580.84;1577418;89;21118;-51
2022/10/16 02:46:48;;;;;;;7.50;4.80;;;;;;;14.70;51.16;102583.49;1578065;89;21111;-51
2022/10/16 02:49:15;;;;;;;8.00;4.60;;;;;;;14.62;51.17;102586.63;1623358;85;21031;-54
2022/10/16 02:51:42;;;;;;;7.25;4.62;;;;;;;14.56;51.36;102587.57;1637446;87;21097;-51
2022/10/16 02:54:08;;;;;;;5.85;4.37;;;;;;;14.53;51.45;102592.81;1641489;85;21058;-51
2022/10/16 02:56:35;;;;;;;8.53;5.20;;;;;;;14.51;51.47;102597.64;1640652;85;21022;-53
2022/10/16 02:59:01;;;;;;;5.42;4.58;;;;;;;14.49;51.53;102600.28;1638886;85;21534;-51
2022/10/16 03:01:28;;;;;;;6.78;4.85;;;;;;;14.46;51.48;102602.94;1638614;85;21047;-51
2022/10/16 03:03:55;;;;;;;6.83;4.65;;;;;;;14.46;51.50;102604.25;1685367;82;21049;-51
2022/10/16 03:06:22;;;;;;;5.67;4.55;;;;;;;14.45;51.39;102609.05;1700622;82;21577;-51
2022/10/16 03:08:48;;;;;;;7.35;4.72;;;;;;;14.41;51.29;102607.34;1702353;82;21021;-51
2022/10/16 03:11:15;;;;;;;6.42;4.95;;;;;;;14.37;51.08;102617.41;1703841;82;21065;-51
2022/10/16 03:13:42;;;;;;;7.15;5.55;;;;;;;14.33;50.99;102604.34;1703848;82;21605;-50
2022/10/16 03:16:08;;;;;;;10.60;5.37;;;;;;;14.27;50.99;102602.62;1699846;84;21042;-50
2022/10/16 03:18:37;;;;;;;5.58;5.03;;;;;;;14.22;51.11;102603.08;1692977;82;21050;-50
2022/10/16 03:21:03;;;;;;;7.87;5.22;;;;;;;14.18;51.36;102602.67;1706862;82;21066;-50
2022/10/16 03:23:32;;;;;;;5.60;5.00;;;;;;;14.17;51.42;102608.81;1705361;82;21078;-51
2022/10/16 03:25:58;;;;;;;6.53;5.00;;;;;;;14.14;51.30;102597.03;1703469;83;21046;-50
2022/10/16 03:28:26;;;;;;;7.53;5.15;;;;;;;14.13;51.14;102603.17;1706855;82;21051;-51
2022/10/16 03:30:53;;;;;;;7.90;5.53;;;;;;;14.12;51.02;102604.03;1705614;82;21126;-53
2022/10/16 03:33:19;;;;;;;8.33;5.08;;;;;;;14.12;50.88;102605.34;1703767;82;21025;-52
2022/10/16 03:35:54;;;;;;;9.18;4.97;;;;;;;14.08;50.77;102606.24;1704088;82;21027;-54
2022/10/16 03:38:21;;;;;;;6.45;5.03;;;;;;;14.02;50.83;102603.67;1703538;82;21562;-55
2022/10/16 03:40:48;;;;;;;6.40;4.50;;;;;;;13.99;50.91;102607.63;1703961;82;21491;-51
2022/10/16 03:43:15;;;;;;;10.00;4.53;;;;;;;13.96;51.01;102612.87;1704195;82;21042;-51
2022/10/16 03:45:42;;;;;;;6.47;4.42;;;;;;;13.95;51.21;102611.12;1705676;82;21062;-51
2022/10/16 03:48:10;;;;;;;12.35;4.62;;;;;;;13.93;51.11;102608.95;1704756;82;21565;-51
2022/10/16 03:50:37;;;;;;;9.20;4.90;;;;;;;13.91;51.06;102615.94;1705480;82;21541;-50
2022/10/16 03:53:03;;;;;;;7.58;4.60;;;;;;;13.89;51.12;102617.70;1706043;83;21018;-51
2022/10/16 03:55:30;;;;;;;7.60;5.15;;;;;;;13.87;51.15;102616.84;1706884;82;21070;-51
2022/10/16 03:57:56;;;;;;;9.50;5.25;;;;;;;13.84;51.14;102614.26;1706817;82;21073;-50
2022/10/16 04:00:24;;;;;;;11.18;5.15;;;;;;;13.80;51.07;102606.00;1704993;82;21023;-54
2022/10/16 04:02:50;;;;;;;9.88;4.75;;;;;;;13.77;51.06;102609.92;1703870;82;21085;-52
2022/10/16 04:05:17;;;;;;;8.18;5.00;;;;;;;13.72;51.21;102605.17;1703563;82;21031;-51
2022/10/16 04:07:44;;;;;;;6.45;4.67;;;;;;;13.70;51.36;102611.70;1703964;82;21504;-51
2022/10/16 04:10:11;;;;;;;8.28;5.15;;;;;;;13.67;51.42;102613.47;1704266;82;21002;-51
2022/10/16 04:12:39;;;;;;;7.40;4.60;;;;;;;13.65;51.54;102616.53;1706013;82;21082;-50
2022/10/16 04:15:08;;;;;;;7.03;4.75;;;;;;;13.60;51.46;102622.23;1706231;83;21045;-51
2022/10/16 04:17:36;;;;;;;6.97;3.92;;;;;;;13.56;51.52;102621.83;1699581;82;21065;-50
2022/10/16 04:20:06;;;;;;;7.10;4.40;;;;;;;13.53;51.65;102623.13;1703300;82;21038;-54
2022/10/16 04:22:32;;;;;;;5.95;4.42;;;;;;;13.51;51.62;102629.69;1703723;82;21003;-53
2022/10/16 04:25:01;;;;;;;7.37;4.80;;;;;;;13.53;51.53;102632.28;1705142;82;21066;-51
2022/10/16 04:27:28;;;;;;;9.78;5.12;;;;;;;13.54;51.50;102637.96;1706244;82;21031;-56
2022/10/16 04:29:55;;;;;;;8.05;5.08;;;;;;;13.54;51.45;102635.34;1705723;82;21541;-53
2022/10/16 04:32:21;;;;;;;7.83;5.03;;;;;;;13.53;51.48;102636.20;1703422;82;21482;-52
2022/10/16 04:34:48;;;;;;;6.72;4.42;;;;;;;13.51;51.24;102636.66;1705364;82;21014;-52
2022/10/16 04:37:15;;;;;;;7.42;4.60;;;;;;;13.46;51.27;102637.09;1701610;83;21070;-53
2022/10/16 04:39:41;;;;;;;7.12;4.83;;;;;;;13.45;51.35;102639.30;1708116;82;21043;-51
2022/10/16 04:42:08;;;;;;;7.22;4.37;;;;;;;13.43;51.45;102641.05;1705551;82;21070;-50
2022/10/16 04:44:35;;;;;;;7.30;4.47;;;;;;;13.42;51.54;102651.05;1703134;82;21034;-51
2022/10/16 04:47:02;;;;;;;5.90;4.42;;;;;;;13.43;51.59;102656.73;1703270;82;21078;-56
2022/10/16 04:49:29;;;;;;;4.90;4.12;;;;;;;13.45;51.62;102645.83;1703217;82;21097;-51
2022/10/16 04:51:55;;;;;;;5.90;4.42;;;;;;;13.47;51.57;102646.70;1703632;81;21002;-52
2022/10/16 04:54:22;;;;;;;5.47;4.90;;;;;;;13.46;51.52;102647.55;1704467;82;21050;-50
2022/10/16 04:56:50;;;;;;;7.28;4.62;;;;;;;13.43;51.54;102647.58;1706341;82;21029;-54
2022/10/16 04:59:18;;;;;;;5.05;4.00;;;;;;;13.40;51.52;102653.69;1706493;82;21002;-50
2022/10/16 05:01:45;;;;;;;6.85;4.20;;;;;;;13.37;51.72;102650.22;1710115;82;21074;-51
2022/10/16 05:04:12;;;;;;;8.45;4.80;;;;;;;13.35;51.72;102650.23;1704723;82;21006;-50
2022/10/16 05:06:40;;;;;;;5.60;4.62;;;;;;;13.33;51.80;102655.91;1705202;83;21125;-52
2022/10/16 05:09:08;;;;;;;5.62;4.10;;;;;;;13.33;51.91;102658.95;1706226;82;21014;-51
2022/10/16 05:11:34;;;;;;;9.88;4.80;;;;;;;13.34;51.93;102665.90;1706469;82;21029;-53
2022/10/16 05:14:01;;;;;;;5.87;4.30;;;;;;;13.33;52.10;102669.41;1703960;82;21070;-54
2022/10/16 05:16:30;;;;;;;6.78;4.35;;;;;;;13.33;52.23;102666.80;1698732;82;21053;-54
2022/10/16 05:18:57;;;;;;;7.85;4.55;;;;;;;13.32;52.25;102667.65;1704955;82;21061;-51
2022/10/16 05:21:24;;;;;;;9.08;4.75;;;;;;;13.33;52.31;102674.20;1717300;82;21538;-52
2022/10/16 05:23:55;;;;;;;5.08;4.58;;;;;;;13.35;52.35;102672.89;1720572;82;21005;-51
2022/10/16 05:26:21;;;;;;;5.78;4.65;;;;;;;13.38;52.35;102680.70;1713127;82;21519;-53
2022/10/16 05:28:49;;;;;;;5.72;4.58;;;;;;;13.41;52.42;102682.02;1718951;82;21018;-53
2022/10/16 05:31:17;;;;;;;5.60;4.08;;;;;;;13.45;52.41;102686.36;1714881;82;21065;-51
2022/10/16 05:33:43;;;;;;;7.97;5.05;;;;;;;13.49;52.33;102685.48;1717570;81;21491;-51
2022/10/16 05:36:12;;;;;;;7.40;4.17;;;;;;;13.54;52.21;102690.27;1706206;82;21038;-51
2022/10/16 05:38:41;;;;;;;4.58;3.90;;;;;;;13.58;52.04;102688.92;1717446;82;21499;-51
2022/10/16 05:41:08;;;;;;;6.80;4.50;;;;;;;13.62;51.79;102700.27;1724124;82;21081;-51
2022/10/16 05:43:35;;;;;;;5.60;4.50;;;;;;;13.63;51.69;102703.30;1704424;83;21042;-53
2022/10/16 05:46:05;;;;;;;6.85;4.55;;;;;;;13.64;51.70;102698.52;1714485;82;21591;-50
2022/10/16 05:48:33;;;;;;;4.50;3.83;;;;;;;13.66;51.64;102700.69;1712488;82;21124;-51
2022/10/16 05:51:06;;;;;;;7.62;4.62;;;;;;;13.67;51.67;102705.03;1708294;82;21522;-54
2022/10/16 05:53:35;;;;;;;6.28;4.33;;;;;;;13.67;51.74;102703.30;1707537;82;21030;-51
2022/10/16 05:56:02;;;;;;;7.08;3.98;;;;;;;13.74;51.81;102709.38;1706048;82;21097;-53
2022/10/16 05:58:31;;;;;;;5.30;3.70;;;;;;;13.82;51.66;102712.83;1704250;82;21039;-54
2022/10/16 06:01:04;;;;;;;4.50;3.87;;;;;;;13.90;51.48;102711.05;1704600;83;21483;-50
2022/10/16 06:03:31;;;;;;;4.85;3.70;;;;;;;13.98;51.04;102711.87;1709033;82;21007;-53
2022/10/16 06:05:57;;;;;;;8.38;4.42;;;;;;;14.08;50.89;102718.80;1708556;82;21081;-51
2022/10/16 06:08:24;;;;;;;6.08;4.55;;;;;;;14.15;50.62;102715.29;1706461;82;21015;-50
2022/10/16 06:11:04;;;;;;;6.85;3.80;;;;;;;14.21;50.51;102723.11;1705760;82;21053;-51
2022/10/16 06:13:31;;;;;;;5.67;3.95;;;;;;;14.25;50.25;102723.95;1698430;82;21497;-51
2022/10/16 06:15:59;;;;;;;5.40;4.08;;;;;;;14.31;50.09;102725.26;1706981;82;21038;-56
2022/10/16 06:18:27;;;;;;;5.90;4.22;;;;;;;14.36;49.72;102725.65;1708771;82;21980;-51
2022/10/16 06:20:55;;;;;;;8.03;4.10;;;;;;;14.42;49.63;102719.09;1708063;82;21058;-52
2022/10/16 06:23:23;;;;;;;4.05;3.33;;;;;;;14.47;49.67;102723.84;1705758;82;21014;-52
2022/10/16 06:25:50;;;;;;;6.00;3.90;;;;;;;14.53;49.67;102722.49;1707454;82;21494;-53
2022/10/16 06:28:16;;;;;;;5.47;4.12;;;;;;;14.56;49.04;102722.48;1708003;83;21006;-50
2022/10/16 06:30:43;;;;;;;6.42;4.62;;;;;;;14.56;48.74;102731.66;1695638;82;21034;-51
2022/10/16 06:33:11;;;;;;;9.18;4.33;;;;;;;14.58;48.72;102732.52;1708414;82;21046;-56
2022/10/16 06:35:38;;;;;;;6.42;4.30;;;;;;;14.62;48.84;102736.85;1707890;82;21049;-56
2022/10/16 06:38:05;;;;;;;5.85;4.03;;;;;;;14.68;48.87;102730.69;1705997;82;21062;-53
2022/10/16 06:40:31;;;;;;;6.28;4.35;;;;;;;14.74;48.83;102740.24;1707540;82;21035;-53
2022/10/16 06:42:59;;;;;;;5.97;3.87;;;;;;;14.78;48.77;102741.95;1708117;83;21053;-54
2022/10/16 06:45:26;;;;;;;5.08;3.98;;;;;;;14.83;48.55;102741.49;1708431;82;21046;-51
2022/10/16 06:47:53;;;;;;;4.28;3.60;;;;;;;14.84;48.22;102747.19;1707615;82;21062;-54
2022/10/16 06:50:19;;;;;;;5.10;3.90;;;;;;;14.86;48.02;102748.88;1696492;82;21530;-51
2022/10/16 06:52:48;;;;;;;5.92;4.08;;;;;;;14.89;48.03;102747.56;1708593;82;21070;-53
2022/10/16 06:55:15;;;;;;;6.97;4.78;;;;;;;14.93;48.03;102761.51;1708450;82;21077;-55
2022/10/16 06:57:41;;;;;;;4.67;3.95;;;;;;;14.96;48.08;102758.87;1705733;82;21061;-53
2022/10/16 07:00:09;;;;;;;7.85;4.55;;;;;;;14.99;48.01;102766.70;1707230;82;21506;-52
2022/10/16 07:02:35;;;;;;;4.65;4.03;;;;;;;15.02;48.05;102760.14;1707620;82;20994;-51
2022/10/16 07:05:03;;;;;;;5.08;4.25;;;;;;;15.05;48.27;102765.34;1708480;82;21023;-50
2022/10/16 07:07:30;;;;;;;8.03;4.85;;;;;;;15.10;47.96;102762.25;1708606;82;21542;-50
2022/10/16 07:09:57;;;;;;;7.75;4.70;;;;;;;15.14;47.59;102769.20;1705818;82;21041;-50
2022/10/16 07:12:24;;;;;;;4.55;3.83;;;;;;;15.16;47.29;102767.00;1705424;82;21065;-49
2022/10/16 07:14:52;;;;;;;6.28;4.37;;;;;;;15.19;47.15;102761.71;1705583;82;21093;-50
2022/10/16 07:17:18;;;;;;;7.97;3.83;;;;;;;15.24;47.06;102767.80;1703183;82;21033;-53
2022/10/16 07:19:46;;;;;;;6.55;4.37;;;;;;;15.30;47.04;102769.48;1706512;82;21058;-51
2022/10/16 07:22:13;;;;;;;5.67;4.28;;;;;;;15.34;46.89;102768.14;1703481;82;21043;-52
2022/10/16 07:24:40;;;;;;;6.05;3.85;;;;;;;15.38;46.77;102769.84;1702175;83;21039;-54
2022/10/16 07:27:07;;;;;;;5.40;4.65;;;;;;;15.44;46.65;102770.25;1705951;83;21054;-50
2022/10/16 07:29:34;;;;;;;7.00;4.12;;;;;;;15.48;46.56;102778.08;1706093;82;21522;-52
2022/10/16 07:32:01;;;;;;;5.50;3.55;;;;;;;15.54;46.51;102778.92;1705059;82;21065;-55
2022/10/16 07:34:28;;;;;;;5.17;4.00;;;;;;;15.58;46.26;102773.60;1702927;82;21026;-52
2022/10/16 07:36:55;;;;;;;6.60;3.98;;;;;;;15.65;45.86;102772.66;1697370;82;21054;-51
2022/10/16 07:39:22;;;;;;;4.95;3.35;;;;;;;15.71;45.64;102769.97;1699791;82;21023;-52
2022/10/16 07:41:50;;;;;;;5.53;3.50;;;;;;;15.78;45.43;102769.03;1706644;82;21034;-53
2022/10/16 07:44:17;;;;;;;6.53;3.52;;;;;;;15.84;45.06;102771.58;1704502;82;21026;-50
2022/10/16 07:46:45;;;;;;;5.30;3.25;;;;;;;15.90;45.01;102770.63;1703207;83;21558;-55
2022/10/16 07:49:11;;;;;;;5.53;3.65;;;;;;;15.95;44.63;102770.99;1698120;82;21019;-55
2022/10/16 07:51:39;;;;;;;4.30;3.10;;;;;;;16.00;44.68;102774.88;1703786;82;21018;-50
2022/10/16 07:54:05;;;;;;;5.30;3.42;;;;;;;16.04;44.46;102780.08;1703590;82;21034;-50
2022/10/16 07:56:32;;;;;;;5.90;3.77;;;;;;;16.09;44.26;102777.41;1706466;82;21077;-53
2022/10/16 07:59:00;;;;;;;4.97;3.75;;;;;;;16.13;44.34;102774.73;1706141;82;20995;-51
2022/10/16 08:01:27;;;;;;;3.92;3.22;;;;;;;16.17;44.27;102776.42;1704292;82;21073;-54
2022/10/16 08:03:53;;;;;;;4.78;3.33;;;;;;;16.20;44.26;102781.63;1704916;82;21041;-50
2022/10/16 08:06:21;;;;;;;7.17;3.27;;;;;;;16.25;44.25;102774.56;1704051;83;21109;-51
2022/10/16 08:08:48;;;;;;;4.97;3.17;;;;;;;16.29;44.32;102777.58;1706836;82;22210;-52
2022/10/16 08:11:15;;;;;;;8.15;3.42;;;;;;;16.33;44.19;102770.95;1706241;82;21042;-52
2022/10/16 08:13:44;;;;;;;5.03;3.50;;;;;;;16.36;44.04;102771.80;1704384;82;20995;-50
2022/10/16 08:16:11;;;;;;;7.97;3.40;;;;;;;16.37;43.76;102772.64;1691434;82;21070;-50
2022/10/16 08:18:38;;;;;;;9.60;3.62;;;;;;;16.37;43.87;102772.20;1705553;83;21029;-50
2022/10/16 08:21:07;;;;;;;4.67;3.35;;;;;;;16.40;44.02;102777.44;1706158;82;21550;-50
2022/10/16 08:23:34;;;;;;;6.17;3.10;;;;;;;16.41;43.99;102782.22;1706159;82;20995;-52
2022/10/16 08:26:06;;;;;;;5.30;3.58;;;;;;;16.42;43.96;102790.11;1703870;82;21025;-52
2022/10/16 08:28:34;;;;;;;4.17;3.33;;;;;;;16.46;43.81;102789.61;1699986;82;21018;-50
2022/10/16 08:31:14;;;;;;;3.90;3.00;;;;;;;16.50;43.45;102790.02;1699464;82;21554;-50
2022/10/16 08:33:45;;;;;;;6.45;2.98;;;;;;;16.51;43.51;102787.80;1706229;82;21030;-50
2022/10/16 08:36:11;;;;;;;7.00;2.83;;;;;;;16.54;43.14;102787.77;1702155;83;21018;-49
2022/10/16 08:38:39;;;;;;;4.72;3.58;;;;;;;16.57;43.13;102794.31;1695041;82;20998;-50
2022/10/16 08:41:25;;;;;;;7.95;3.40;;;;;;;16.61;43.14;102793.38;1704552;82;21096;-50
2022/10/16 08:44:20;;;;;;;3.70;2.77;;;;;;;16.64;43.12;102784.99;1698542;82;21006;-50
2022/10/16 08:47:07;;;;;;;6.83;3.50;;;;;;;16.69;42.62;102790.19;1707154;82;21105;-50
2022/10/16 08:49:34;;;;;;;5.45;2.90;;;;;;;16.71;42.36;102793.20;1677028;84;20984;-52
2022/10/16 08:52:01;;;;;;;6.53;2.62;;;;;;;16.74;42.11;102792.28;1642201;85;21046;-55
2022/10/16 08:54:41;;;;;;;3.92;2.40;;;;;;;16.80;41.70;102797.45;1644363;86;21074;-55
2022/10/16 08:57:16;;;;;;;3.30;2.50;;;;;;;16.83;41.22;102793.48;1685778;84;21023;-51
2022/10/16 08:59:43;;;;;;;6.80;2.60;;;;;;;16.87;41.31;102788.16;1676440;84;20976;-54
2022/10/16 09:02:25;;;;;;;4.53;2.33;;;;;;;16.93;41.12;102783.23;1676508;84;22024;-51
2022/10/16 09:05:04;;;;;;;;;;;;;;;16.96;40.96;102780.09;1678727;84;20980;-50
2022/10/16 09:07:43;;;;;;;6.83;2.35;;;;;;;17.03;40.73;102782.19;1678779;83;20171;-50
2022/10/16 09:10:28;;;;;;;4.20;2.52;;;;;;;17.07;40.73;102791.33;1555256;91;21582;-54
2022/10/16 09:13:10;;;;;;;4.20;2.47;;;;;;;17.13;40.59;102790.78;1567789;90;21128;-50
2022/10/16 09:15:50;;;;;;;;;;;;;;;17.17;40.45;102785.45;1553374;91;21091;-51
2022/10/16 09:18:28;;;;;;;4.08;2.80;;;;;;;17.24;40.34;102781.84;1556235;91;20110;-50
2022/10/16 09:21:13;;;;;;;5.58;2.83;;;;;;;17.30;40.36;102786.98;1529879;91;21076;-51
2022/10/16 09:23:40;;;;;;;6.87;3.05;;;;;;;17.35;39.86;102795.66;1541450;92;21025;-50
2022/10/16 09:26:12;;;;;;;5.78;2.35;;;;;;;17.38;39.69;102787.72;1535963;92;21064;-50
2022/10/16 09:28:39;;;;;;;5.95;2.40;;;;;;;17.41;39.39;102785.05;1537520;92;21094;-50
2022/10/16 09:31:09;;;;;;;3.20;2.70;;;;;;;17.44;39.36;102790.24;1529931;92;21148;-51
2022/10/16 09:33:38;;;;;;;3.92;2.70;;;;;;;17.45;39.48;102780.59;1531084;92;21116;-50
2022/10/16 09:36:06;;;;;;;3.65;2.50;;;;;;;17.46;39.57;102779.67;1540173;92;21098;-51
2022/10/16 09:38:38;;;;;;;3.98;2.15;;;;;;;17.47;39.39;102775.73;1534602;92;21135;-50
2022/10/16 09:41:19;;;;;;;3.20;2.60;;;;;;;17.48;39.47;102778.77;1537033;92;21094;-50
2022/10/16 09:43:57;;;;;;;2.85;2.55;;;;;;;17.50;39.48;102779.63;1554768;91;21120;-49
2022/10/16 09:46:29;;;;;;;2.65;2.10;;;;;;;17.55;39.32;102785.70;1596106;85;21079;-50
2022/10/16 09:48:59;;;;;;;4.85;2.85;;;;;;;17.59;39.16;102782.11;1715431;82;21046;-52
2022/10/16 09:51:31;;;;;;;5.17;2.67;;;;;;;17.61;39.18;102785.58;1673830;84;21070;-50
2022/10/16 09:54:00;;;;;;;;;;;;;;;17.64;38.95;102788.61;1614755;87;21121;-50
2022/10/16 09:56:32;;;;;;;3.52;2.52;;;;;;;17.64;38.67;102782.87;1601140;89;20170;-49
2022/10/16 09:59:12;;;;;;;6.42;2.62;;;;;;;17.64;38.93;102776.29;1622510;86;21511;-50
2022/10/16 10:01:52;;;;;;;2.35;2.08;;;;;;;17.66;38.86;102774.50;1599981;87;21118;-50
2022/10/16 10:04:20;;;;;;;3.65;2.60;;;;;;;17.71;38.79;102773.09;1517447;93;21078;-52
2022/10/16 10:06:54;;;;;;;3.47;2.60;;;;;;;17.77;38.39;102770.34;1517965;93;21129;-52
2022/10/16 10:09:26;;;;;;;4.40;2.62;;;;;;;17.81;38.32;102770.70;1522328;93;21027;-55
2022/10/16 10:12:02;;;;;;;4.72;2.02;;;;;;;17.84;38.54;102766.27;1517123;93;21577;-51
2022/10/16 10:14:40;;;;;;;4.80;3.15;;;;;;;17.88;38.83;102765.30;1523529;93;21538;-53
2022/10/16 10:17:21;;;;;;;3.80;2.17;;;;;;;17.95;38.80;102767.81;1520552;93;21094;-52
2022/10/16 10:19:54;;;;;;;2.25;1.98;;;;;;;18.01;38.47;102763.25;1518474;93;21070;-50
2022/10/16 10:22:25;;;;;;;3.27;2.47;;;;;;;18.07;37.87;102755.70;1512868;93;21077;-51
2022/10/16 10:25:10;;;;;;;3.90;2.10;;;;;;;18.12;37.48;102756.45;1517551;93;21050;-52
2022/10/16 10:28:12;;;;;;;4.12;2.22;;;;;;;18.18;37.37;102758.95;1516543;93;21089;-51
2022/10/16 10:31:06;;;;;;;4.15;2.10;;;;;;;18.23;37.48;102749.19;1515559;93;21105;-50
2022/10/16 10:34:13;;;;;;;2.72;1.65;;;;;;;18.31;37.28;102749.89;1518664;93;21095;-51
2022/10/16 10:36:41;;;;;;;4.70;2.10;;;;;;;18.36;37.01;102751.98;1516126;93;21145;-52
2022/10/16 10:39:22;;;;;;;3.30;2.30;;;;;;;18.42;36.83;102754.48;1518071;93;21125;-51
2022/10/16 10:42:15;;;;;;;4.15;2.30;;;;;;;18.44;37.03;102754.87;1544555;91;21638;-50
2022/10/16 10:44:54;;;;;;;4.25;1.75;;;;;;;18.49;36.75;102754.77;1564347;91;21146;-52
2022/10/16 10:47:46;;;;;;;3.00;2.02;;;;;;;18.54;36.82;102751.59;1567890;90;21085;-52
2022/10/16 10:50:58;;;;;;;3.60;1.65;;;;;;;18.59;36.74;102749.25;1593635;88;21109;-50
2022/10/16 10:53:49;;;;;;;3.30;2.00;;;;;;;18.66;36.78;102749.98;1620220;87;21215;-51
2022/10/16 10:56:49;;;;;;;5.35;2.08;;;;;;;18.73;36.10;102738.84;1587505;89;21054;-50
2022/10/16 10:59:34;;;;;;;2.40;1.70;;;;;;;18.76;35.88;102737.43;1551287;92;21072;-49
2022/10/16 11:02:23;;;;;;;2.65;1.60;;;;;;;18.80;35.96;102737.33;1539464;92;21142;-50
2022/10/16 11:05:03;;;;;;;2.52;1.80;;;;;;;18.85;35.98;102731.50;1490399;96;21625;-52
2022/10/16 11:07:57;;;;;;;3.83;1.90;;;;;;;18.90;36.11;102732.23;1486833;96;21167;-50
2022/10/16 11:10:29;;;;;;;5.60;1.60;;;;;;;18.96;35.93;102728.59;1441202;98;21105;-50
2022/10/16 11:13:12;;;;;;;;;;;;;;;19.00;35.61;102735.05;1442904;99;21050;-50
2022/10/16 11:15:39;;;;;;;5.05;2.05;;;;;;;19.04;36.06;102731.91;1442219;98;20153;-50
2022/10/16 11:18:19;;;;;;;5.40;2.35;;;;;;;19.07;36.02;102735.32;1438294;99;21505;-50
2022/10/16 11:20:58;;;;;;;6.67;2.62;;;;;;;19.10;35.74;102729.11;1439784;97;21130;-49
2022/10/16 11:23:49;;;;;;;5.17;2.55;;;;;;;19.13;35.71;102724.61;1424772;101;21098;-49
2022/10/16 11:26:23;;;;;;;2.83;2.08;;;;;;;19.15;35.58;102722.80;1393211;103;21144;-50
2022/10/16 11:28:58;;;;;;;3.17;1.90;;;;;;;19.19;35.59;102720.48;1392994;103;21236;-52
2022/10/16 11:31:39;;;;;;;6.33;2.22;;;;;;;19.23;35.52;102717.30;1330281;107;21137;-50
2022/10/16 11:34:26;;;;;;;2.62;1.90;;;;;;;19.26;35.39;102715.47;1403536;99;21191;-50
2022/10/16 11:37:16;;;;;;;1.98;1.67;;;;;;;19.30;35.07;102717.56;1425915;100;21603;-51
2022/10/16 11:39:42;;;;;;;2.47;1.70;;;;;;;19.32;35.13;102717.94;1406232;100;21071;-49
2022/10/16 11:42:21;;;;;;;4.03;2.08;;;;;;;19.36;35.42;102724.91;1472580;94;21601;-52
2022/10/16 11:45:13;;;;;;;4.42;1.98;;;;;;;19.38;34.58;102719.13;1508515;94;21117;-50
2022/10/16 11:47:49;;;;;;;3.20;1.62;;;;;;;19.39;34.45;102716.88;1509132;94;21191;-49